Bothwell, United Kingdom
Current Conditions -  °F | °C
As of 4:20 PM on Friday 21 Nov 2014 (Local Time) from EGPF Reporting Station
Few Clouds Few Clouds  
Wind Chill: 43°   Ceiling: Unl
Heat Index: 48°   Visibility: 6mi
Dew Point: 39°   Wind: 12mph
Humidity: 71%   Direction: 90°E
Pressure: 29.91"   Gusts: NA
Location:  55.8°N, 4.07°W
Report Text: EGPF 211620Z 09010KT 9999 FEW026 09/04 Q1013
Loading
Personal Weather Stations






























Interactive Weather Map New forecast layout! Learn more

10-Day Weather Forecast

Advertisements
Track Severe Weather on mobile